SBSPSBSR

Guest
Details From SBSP - Sao Paulo Congonhas
To SBSR - SAO JOSE DO RIO PRETO
Flight Number -
Tags generated
Created
Modified
Stats Distance 231 nm / 428 km
Max Altitude 28,700 ft / 8,748 m
Waypoints 4
Social Downloads 2
Likes 0
Share VATSIM

Download

Looking for another format? Having issues loading an existing format? Contact us
Advertisement - Login to hide

Notes

Basic altitude profile: - Ascent Rate: 2500ft/min - Ascent Speed: 250kts - Cruise Altitude: 35000ft - Cruise Speed: 420kts - Descent Rate: 1500ft/min - Descent Speed: 250kts Options: - Use NATs: yes - Use PACOTS: yes - Use low airways: yes - Use high airways: yes

Route

SBSP GRADE UW55 AAQ SBSR

ID Type Via Altitude Latitude Longitude Leg Dist Tot Dist Heading (true) Name
O SBSP APT - 0 ft / 0 m -23.62669˚ -46.65538˚ - 0 nm - Sao Paulo Congonhas
GRADE FIX - 28,700 ft / 8,748 m -22.67417˚ -47.68117˚ 80 nm 80 nm 315° / 315° -
AAQ NDB UW55 (AWY-HI) 24,500 ft / 7,468 m -21.81300˚ -48.13950˚ 57 nm 138 nm 334° / 334° ARARAQUARA NDB
O SBSR APT - 0 ft / 0 m -20.81657˚ -49.40651˚ 92 nm 230 nm 310° / 310° SAO JOSE DO RIO PRETO

Altitude Profile

Advertisement - Login to hide

Weather


0- 5 10 15 20 25 30 35+ Temperature / ° C

Clouds and Precipitation
Forecast for 2017-12-15 00:00 UTC. Updated an hour ago

Ground ~20,000 ft ~40,000 ft Winds

SBSP

Details ICAO SBSP (CGH)
Name Sao Paulo Congonhas
Region Brazil
Timezone America/Sao_Paulo (UTC-2.0)
Stats Elevation 2,631 ft / 802 m (AMSL)
Location -23.626693° -46.655377°
Runways 2
Magnetic Variation 21.295° W

METAR

SBSP 142200Z 20007KT CAVOK 24/16 Q1017

Decode

TAF

TAF SBSP 141630Z 1418/1518 23008KT 9999 SCT035 FEW045TCU TN20/1508ZTX30/1517Z PROB30 1418/1422 8000 SHRA BKN030 FEW045TCU BECMG 1422/1424 14004KT BKN011 BECMG 1502/1504 05005KT 8000 SCT008 PROB30 1508/1511 4000 BR BKN005 BECMG 1511/1513 9999 SCT030 BECMG 1514/1516 33008KT SCT035 FEW040TCU RMK PGL

Decode

Departure Runways

ID Width Length Bearing (true) Bearing (mag) Surface Threshold Offset Overrun Length
17L 147 ft / 45 m 4,726 ft / 1,441 m 147.28° 168.57° Asphalt 0 ft / 0 m 220 ft / 67 m
17R 147 ft / 45 m 6,406 ft / 1,953 m 147.39° 168.68° Asphalt 413 ft / 126 m 0 ft / 0 m
35L 147 ft / 45 m 6,406 ft / 1,953 m 327.38° 348.67° Asphalt 200 ft / 61 m 0 ft / 0 m
35R 147 ft / 45 m 4,726 ft / 1,441 m 327.28° 348.57° Asphalt 0 ft / 0 m 0 ft / 0 m

SBSR

Details ICAO SBSR (SJP)
Name SAO JOSE DO RIO PRETO
Region Brazil
Timezone America/Sao_Paulo (UTC-2.0)
Stats Elevation 1,784 ft / 544 m (AMSL)
Location -20.816565° -49.406510°
Runways 1
Magnetic Variation 20.480° W

METAR

SBSR 142200Z 12006KT CAVOK 30/16 Q1013

Decode

TAF

Not found

Destination Runways

ID Width Length Bearing (true) Bearing (mag) Surface Threshold Offset Overrun Length
07 115 ft / 35 m 5,373 ft / 1,638 m 51.42° 71.90° Asphalt 0 ft / 0 m 0 ft / 0 m
25 115 ft / 35 m 5,373 ft / 1,638 m 231.42° 251.90° Asphalt 0 ft / 0 m 0 ft / 0 m

Popular Alternatives